Time;durP1;ratioP1;P1;durP2;ratioP2;P2;SDS_P1;SDS_P2;PMS_P1;PMS_P2;Temp;Humidity;BMP_temperature;BMP_pressure;BME280_temperature;BME280_humidity;BME280_pressure;Samples;Min_cycle;Max_cycle;Signal;HPM_P1;HPM_P2
2022/09/27 00:00:24;;;;;;;3.15;1.08;;;;;;;16.74;60.76;99590.00;5031836;28;20033;-69
2022/09/27 00:02:50;;;;;;;1.17;0.50;;;;;;;16.54;61.70;99594.63;5031589;28;20037;-72
2022/09/27 00:05:16;;;;;;;5.95;0.63;;;;;;;16.34;62.23;99591.38;5031900;28;20540;-73
2022/09/27 00:07:42;;;;;;;3.63;0.75;;;;;;;16.51;61.38;99600.63;5031267;28;20035;-71
2022/09/27 00:10:08;;;;;;;4.68;0.73;;;;;;;16.53;61.30;99601.16;5031816;28;20406;-71
2022/09/27 00:12:34;;;;;;;2.97;0.98;;;;;;;16.38;61.64;99608.66;5030471;28;20032;-72
2022/09/27 00:15:02;;;;;;;2.03;0.68;;;;;;;16.78;60.66;99607.28;5031616;28;20042;-74
2022/09/27 00:17:28;;;;;;;2.88;0.40;;;;;;;15.96;63.05;99609.50;5031086;28;21283;-71
2022/09/27 00:19:57;;;;;;;4.55;0.70;;;;;;;16.83;60.58;99605.28;5031959;28;20025;-72
2022/09/27 00:22:23;;;;;;;2.50;0.50;;;;;;;16.23;61.58;99614.31;5031578;28;20041;-72
2022/09/27 00:24:49;;;;;;;1.35;0.80;;;;;;;16.57;61.30;99618.44;5031676;28;20040;-71
2022/09/27 00:27:14;;;;;;;2.85;0.68;;;;;;;16.59;60.82;99616.25;5031564;28;20042;-72
2022/09/27 00:29:39;;;;;;;6.07;0.52;;;;;;;16.70;60.54;99619.63;5046363;28;20065;-71
2022/09/27 00:32:05;;;;;;;3.80;0.80;;;;;;;16.63;60.75;99614.56;5030296;28;20359;-71
2022/09/27 00:34:30;;;;;;;12.98;1.00;;;;;;;17.19;59.00;99619.09;5031822;28;20036;-70
2022/09/27 00:36:55;;;;;;;7.90;1.02;;;;;;;17.04;59.28;99617.41;5031426;28;20088;-70
2022/09/27 00:39:21;;;;;;;3.70;1.20;;;;;;;17.05;59.30;99619.06;5031616;28;20068;-72
2022/09/27 00:41:46;;;;;;;2.58;0.80;;;;;;;17.48;58.06;99614.19;5031233;28;20049;-71
2022/09/27 00:44:24;;;;;;;3.13;0.43;;;;;;;17.10;58.76;99618.16;5032364;28;20142;-72
2022/09/27 00:47:00;;;;;;;2.40;0.82;;;;;;;16.98;59.38;99620.53;5035687;28;20045;-74
2022/09/27 00:49:37;;;;;;;6.50;0.63;;;;;;;17.04;58.61;99620.13;5035268;28;20079;-72
2022/09/27 00:52:10;;;;;;;4.15;1.42;;;;;;;17.21;58.90;99619.59;5035352;28;20038;-72
2022/09/27 00:54:39;;;;;;;8.55;0.88;;;;;;;17.45;57.09;99615.59;5035272;28;20429;-74
2022/09/27 00:57:05;;;;;;;2.78;0.63;;;;;;;16.75;60.41;99619.53;5035169;28;20042;-71
2022/09/27 00:59:40;;;;;;;3.92;0.65;;;;;;;17.26;57.91;99616.78;5035220;28;20489;-72
2022/09/27 01:02:06;;;;;;;9.27;1.00;;;;;;;17.20;58.43;99609.81;5035242;28;20033;-71
2022/09/27 01:04:33;;;;;;;2.85;0.60;;;;;;;17.53;57.32;99616.88;5035299;28;20033;-72
2022/09/27 01:06:59;;;;;;;1.35;0.52;;;;;;;17.41;57.77;99622.72;5035025;28;20099;-72
2022/09/27 01:09:25;;;;;;;4.13;0.70;;;;;;;17.42;57.75;99626.25;5034997;28;20041;-72
2022/09/27 01:12:26;;;;;;;6.53;0.60;;;;;;;17.27;58.78;99630.06;5033394;28;20037;-72
2022/09/27 01:15:07;;;;;;;3.83;0.70;;;;;;;16.96;59.21;99628.94;5031703;28;20121;-72
2022/09/27 01:17:55;;;;;;;3.85;0.75;;;;;;;17.22;58.74;99630.16;5034246;28;20142;-71
2022/09/27 01:20:40;;;;;;;4.70;0.52;;;;;;;17.26;58.78;99636.59;5012012;28;20177;-71
2022/09/27 01:23:42;;;;;;;10.95;0.90;;;;;;;17.52;58.20;99634.25;5012093;28;20113;-71
2022/09/27 01:26:19;;;;;;;11.35;0.93;;;;;;;17.62;58.11;99633.25;5011904;28;20050;-70
2022/09/27 01:28:48;;;;;;;14.10;1.33;;;;;;;17.22;58.92;99634.75;5012645;28;20041;-72
2022/09/27 01:31:31;;;;;;;4.53;1.02;;;;;;;17.08;59.54;99637.44;5011992;28;20125;-72
2022/09/27 01:34:18;;;;;;;9.48;2.30;;;;;;;17.59;57.50;99626.53;4995425;28;20039;-70
2022/09/27 01:37:26;;;;;;;5.60;0.80;;;;;;;17.23;58.22;99630.97;5011278;28;20041;-71
2022/09/27 01:40:04;;;;;;;5.22;1.15;;;;;;;17.07;59.90;99629.59;5012024;28;20034;-71
2022/09/27 01:42:35;;;;;;;7.43;1.33;;;;;;;17.42;58.46;99632.50;5011703;28;20038;-72
2022/09/27 01:45:13;;;;;;;4.57;0.68;;;;;;;17.26;58.28;99633.06;5011927;28;20136;-72
2022/09/27 01:47:53;;;;;;;4.22;1.05;;;;;;;16.55;60.61;99626.06;5011942;28;20050;-71
2022/09/27 01:50:30;;;;;;;6.07;1.13;;;;;;;16.94;59.22;99639.31;5011480;28;20050;-71
2022/09/27 01:53:04;;;;;;;6.68;1.20;;;;;;;17.10;58.82;99639.88;5012201;28;20513;-71
2022/09/27 01:55:34;;;;;;;6.80;1.00;;;;;;;17.11;57.88;99630.63;5011428;28;20445;-70
2022/09/27 01:58:11;;;;;;;6.75;0.73;;;;;;;17.12;58.35;99627.59;5027170;28;20048;-73
2022/09/27 02:00:39;;;;;;;4.60;0.68;;;;;;;17.34;57.31;99630.47;5033849;28;20033;-73
2022/09/27 02:03:12;;;;;;;10.13;0.80;;;;;;;17.07;58.05;99624.16;5032963;28;20041;-72
2022/09/27 02:05:44;;;;;;;3.30;0.90;;;;;;;17.45;56.93;99620.25;5032948;28;20034;-72
2022/09/27 02:08:20;;;;;;;2.47;0.90;;;;;;;17.59;56.18;99628.44;5032880;28;20477;-71
2022/09/27 02:10:48;;;;;;;3.58;0.52;;;;;;;17.34;56.75;99621.53;5033448;28;20038;-72
2022/09/27 02:13:32;;;;;;;1.48;0.40;;;;;;;17.31;56.38;99622.94;5033140;28;20048;-72
2022/09/27 02:16:16;;;;;;;0.38;0.30;;;;;;;17.19;57.44;99621.78;5032717;28;20040;-71
2022/09/27 02:18:48;;;;;;;1.70;0.73;;;;;;;17.36;56.49;99624.75;5032479;28;20045;-73
2022/09/27 02:21:15;;;;;;;2.72;0.50;;;;;;;17.09;57.13;99628.22;5032919;28;20090;-72
2022/09/27 02:23:51;;;;;;;2.60;0.90;;;;;;;17.32;56.52;99616.41;5032675;28;20041;-71
2022/09/27 02:26:22;;;;;;;6.05;0.93;;;;;;;17.06;56.68;99617.16;5032922;28;20516;-72
2022/09/27 02:29:21;;;;;;;4.45;0.60;;;;;;;17.51;55.58;99616.38;5034074;28;20087;-72
2022/09/27 02:31:46;;;;;;;4.60;0.60;;;;;;;17.28;56.51;99623.53;5034130;28;20470;-71
2022/09/27 02:34:17;;;;;;;6.72;0.80;;;;;;;17.42;55.93;99624.34;5033354;28;20056;-74
2022/09/27 02:36:42;;;;;;;;;;;;;;;17.40;55.91;99623.84;5033923;28;20033;-71
2022/09/27 02:39:08;;;;;;;2.75;0.60;;;;;;;17.07;56.16;99625.00;5033465;28;19917;-70
2022/09/27 02:41:33;;;;;;;2.83;0.40;;;;;;;16.66;57.78;99616.69;5033223;28;20037;-71
2022/09/27 02:44:03;;;;;;;2.50;0.38;;;;;;;16.61;57.37;99619.47;5033754;28;20315;-71
2022/09/27 02:46:35;;;;;;;4.47;1.17;;;;;;;16.26;58.99;99616.44;5033440;28;20037;-72
2022/09/27 02:49:22;;;;;;;0.52;0.35;;;;;;;16.88;57.32;99609.84;5033239;28;20060;-70
2022/09/27 02:51:54;;;;;;;3.33;1.83;;;;;;;17.02;56.42;99613.41;5033016;28;20041;-71
2022/09/27 02:54:35;;;;;;;6.93;0.65;;;;;;;16.49;57.94;99605.53;5033000;28;20040;-73
2022/09/27 02:57:34;;;;;;;6.47;1.02;;;;;;;16.65;57.57;99614.25;5032951;28;20095;-72
2022/09/27 03:00:09;;;;;;;14.63;0.82;;;;;;;16.86;57.28;99610.16;5032797;28;20045;-71
2022/09/27 03:02:45;;;;;;;5.50;1.25;;;;;;;16.69;56.93;99605.25;5032708;28;20034;-71
2022/09/27 03:05:18;;;;;;;4.88;1.30;;;;;;;16.51;57.78;99610.69;5032876;28;20457;-73
2022/09/27 03:07:44;;;;;;;6.28;0.80;;;;;;;16.60;57.13;99606.22;5031100;28;20075;-72
2022/09/27 03:10:25;;;;;;;7.25;0.82;;;;;;;16.58;57.74;99611.13;5032717;28;20046;-71
2022/09/27 03:12:52;;;;;;;4.63;0.70;;;;;;;16.53;58.04;99608.47;5032834;28;20034;-70
2022/09/27 03:15:17;;;;;;;2.63;0.70;;;;;;;16.56;57.77;99606.00;5032305;28;20041;-71
2022/09/27 03:17:43;;;;;;;3.65;0.50;;;;;;;16.92;57.06;99600.81;5032128;28;20057;-71
2022/09/27 03:20:08;;;;;;;2.83;1.02;;;;;;;16.67;57.94;99609.34;5032386;28;20477;-72
2022/09/27 03:22:34;;;;;;;3.67;0.68;;;;;;;16.41;58.39;99606.16;5032870;28;20371;-72
2022/09/27 03:25:02;;;;;;;9.02;0.90;;;;;;;16.77;57.38;99605.66;5032515;28;20498;-72
2022/09/27 03:27:27;;;;;;;10.27;1.58;;;;;;;16.93;56.32;99607.84;5032544;28;20078;-71
2022/09/27 03:29:52;;;;;;;5.97;0.88;;;;;;;16.93;56.62;99602.41;5032680;28;20105;-72
2022/09/27 03:32:18;;;;;;;3.92;0.98;;;;;;;16.79;57.34;99614.31;5032396;28;20013;-72
2022/09/27 03:34:43;;;;;;;2.10;0.77;;;;;;;16.99;56.65;99614.00;5032683;28;20061;-73
2022/09/27 03:37:08;;;;;;;4.15;0.70;;;;;;;17.23;56.18;99617.38;5032429;28;20068;-72
2022/09/27 03:39:34;;;;;;;6.68;0.75;;;;;;;16.47;58.21;99610.44;5032249;28;20084;-71
2022/09/27 03:41:59;;;;;;;11.80;1.20;;;;;;;16.21;60.10;99616.50;5032036;28;20038;-71
2022/09/27 03:44:25;;;;;;;4.32;0.70;;;;;;;15.90;61.10;99609.88;5032208;28;20164;-72
2022/09/27 03:46:50;;;;;;;5.05;0.60;;;;;;;16.37;60.21;99609.78;5032495;28;20029;-72
2022/09/27 03:49:16;;;;;;;7.25;1.00;;;;;;;16.35;59.89;99620.13;5031958;28;20493;-72
2022/09/27 03:51:42;;;;;;;6.60;1.13;;;;;;;16.33;58.81;99614.97;5031991;28;20124;-72
2022/09/27 03:54:08;;;;;;;13.00;1.10;;;;;;;16.58;59.71;99614.66;5031999;28;20447;-71
2022/09/27 03:56:33;;;;;;;14.68;1.33;;;;;;;16.22;60.58;99627.06;5032069;28;20558;-71
2022/09/27 03:58:59;;;;;;;4.53;0.77;;;;;;;16.81;58.31;99626.50;5032510;28;20037;-72
2022/09/27 04:01:25;;;;;;;5.25;0.60;;;;;;;16.84;57.94;99630.53;5028563;28;20029;-71
2022/09/27 04:03:51;;;;;;;8.07;1.60;;;;;;;17.11;57.63;99627.91;5019332;28;20037;-71
2022/09/27 04:06:17;;;;;;;7.10;1.13;;;;;;;16.83;58.22;99627.00;5020029;28;20125;-70
2022/09/27 04:08:43;;;;;;;4.00;0.80;;;;;;;17.26;57.56;99635.78;5027589;28;20580;-72
2022/09/27 04:11:08;;;;;;;6.85;1.00;;;;;;;17.18;57.67;99628.31;5017413;28;20060;-70
2022/09/27 04:13:34;;;;;;;4.10;0.98;;;;;;;16.88;58.24;99632.38;5032147;28;20121;-69
2022/09/27 04:16:01;;;;;;;5.10;0.68;;;;;;;16.59;59.17;99624.38;5031531;28;20195;-70
2022/09/27 04:18:27;;;;;;;6.00;1.00;;;;;;;16.29;59.83;99626.69;5031151;28;20041;-70
2022/09/27 04:20:52;;;;;;;1.38;0.73;;;;;;;16.50;59.36;99622.63;5031236;28;20052;-71
2022/09/27 04:23:18;;;;;;;3.45;0.63;;;;;;;16.67;58.01;99626.44;5031485;28;20084;-69
2022/09/27 04:25:43;;;;;;;6.40;0.77;;;;;;;16.90;58.03;99623.91;5032617;28;20037;-71
2022/09/27 04:28:09;;;;;;;9.38;0.85;;;;;;;17.20;56.53;99623.41;5031501;28;20052;-71
2022/09/27 04:30:34;;;;;;;7.88;1.35;;;;;;;17.23;56.09;99633.69;5031570;28;20033;-70
2022/09/27 04:32:59;;;;;;;7.50;1.05;;;;;;;17.32;55.96;99627.25;5031497;28;20437;-72
2022/09/27 04:38:09;;;;;;;4.78;0.73;;;;;;;16.99;56.88;99638.41;5031400;28;20596;-72
2022/09/27 04:40:34;;;;;;;8.13;1.25;;;;;;;16.83;57.35;99654.13;5030592;28;20088;-70
2022/09/27 04:43:03;;;;;;;5.50;1.02;;;;;;;15.41;61.02;99648.03;5036326;28;20132;-73
2022/09/27 04:45:29;;;;;;;4.38;0.52;;;;;;;14.82;62.82;99651.75;5035413;28;20569;-72
2022/09/27 04:47:54;;;;;;;2.63;0.95;;;;;;;15.35;61.28;99646.47;5028812;28;20457;-72
2022/09/27 04:50:20;;;;;;;3.33;0.40;;;;;;;15.96;58.92;99642.00;5030204;28;20112;-72
2022/09/27 04:52:52;;;;;;;1.88;0.55;;;;;;;15.70;60.15;99640.72;5030970;28;20029;-72
2022/09/27 04:55:19;;;;;;;3.58;0.77;;;;;;;16.10;58.46;99648.34;5030514;28;20030;-72
2022/09/27 04:57:45;;;;;;;2.72;0.60;;;;;;;16.34;57.70;99643.69;5032784;28;20378;-73
2022/09/27 05:00:11;;;;;;;1.88;0.50;;;;;;;16.16;57.98;99649.09;5039539;28;20048;-72
2022/09/27 05:02:36;;;;;;;6.72;0.95;;;;;;;16.64;56.63;99643.31;5033751;28;20423;-72
2022/09/27 05:05:02;;;;;;;4.63;0.98;;;;;;;16.75;56.68;99638.53;5030673;28;20057;-72
2022/09/27 05:07:28;;;;;;;10.13;1.17;;;;;;;17.02;55.64;99638.63;5030042;28;20092;-72
2022/09/27 05:09:54;;;;;;;0.95;0.38;;;;;;;16.74;56.05;99641.53;5012736;28;20040;-71
2022/09/27 05:12:20;;;;;;;7.50;1.00;;;;;;;16.49;57.25;99640.00;5030771;28;20033;-72
2022/09/27 05:14:45;;;;;;;1.60;0.73;;;;;;;16.76;56.37;99648.28;5031248;28;20061;-70
2022/09/27 05:17:11;;;;;;;7.72;1.02;;;;;;;16.77;56.29;99643.66;5030667;28;20040;-71
2022/09/27 05:19:40;;;;;;;4.90;0.82;;;;;;;16.64;56.01;99646.03;5031440;28;20038;-74
2022/09/27 05:22:06;;;;;;;1.88;0.70;;;;;;;16.53;56.62;99652.69;5029868;28;20072;-71
2022/09/27 05:24:32;;;;;;;6.90;0.80;;;;;;;16.22;58.06;99643.31;5037576;28;20469;-73
2022/09/27 05:26:59;;;;;;;7.68;0.95;;;;;;;16.41;57.27;99649.56;5046193;28;20425;-72
2022/09/27 05:29:24;;;;;;;5.30;0.80;;;;;;;16.41;57.14;99652.28;5040493;28;20094;-72
2022/09/27 05:31:49;;;;;;;12.15;1.00;;;;;;;16.19;58.32;99656.66;5042549;28;20029;-73
2022/09/27 05:34:16;;;;;;;9.00;0.82;;;;;;;15.82;59.22;99665.50;5044849;28;20045;-73
2022/09/27 05:36:42;;;;;;;6.55;0.82;;;;;;;16.21;58.58;99676.16;5040559;28;20116;-68
2022/09/27 05:39:08;;;;;;;7.05;0.95;;;;;;;15.76;60.03;99669.34;5039418;28;20534;-70
2022/09/27 05:41:33;;;;;;;3.92;0.77;;;;;;;16.03;59.15;99668.78;5042512;28;20094;-71
2022/09/27 05:43:58;;;;;;;4.82;0.90;;;;;;;16.05;58.96;99663.88;5041859;28;20473;-70
2022/09/27 05:46:24;;;;;;;5.47;1.20;;;;;;;15.76;59.71;99659.31;5042081;28;20554;-71
2022/09/27 05:48:49;;;;;;;10.70;1.20;;;;;;;16.43;58.26;99655.50;5043109;28;20029;-71
2022/09/27 05:51:15;;;;;;;7.15;1.20;;;;;;;16.01;59.64;99669.06;5043501;28;20049;-70
2022/09/27 05:53:40;;;;;;;10.05;1.65;;;;;;;16.21;59.06;99659.88;5043073;28;20184;-70
2022/09/27 05:56:06;;;;;;;13.50;1.30;;;;;;;16.39;58.63;99665.31;5038724;28;20049;-71
2022/09/27 05:58:31;;;;;;;6.80;2.10;;;;;;;16.25;59.14;99661.72;5054155;28;20369;-70
2022/09/27 06:00:57;;;;;;;3.30;2.03;;;;;;;15.65;60.41;99671.34;5053716;28;20041;-71
2022/09/27 06:03:22;;;;;;;3.83;1.17;;;;;;;16.51;57.51;99665.72;5053774;28;20069;-73
2022/09/27 06:05:48;;;;;;;5.80;0.85;;;;;;;16.27;57.71;99667.66;5053323;28;20071;-72
2022/09/27 06:08:13;;;;;;;5.40;1.25;;;;;;;16.43;57.66;99679.13;5052882;28;20041;-71
2022/09/27 06:10:40;;;;;;;5.40;0.68;;;;;;;16.39;57.65;99678.88;5053730;28;20029;-71
2022/09/27 06:13:14;;;;;;;4.50;1.20;;;;;;;16.05;57.34;99685.56;5053156;28;20035;-72
2022/09/27 06:15:42;;;;;;;6.30;1.00;;;;;;;16.12;57.72;99683.28;5047217;28;20029;-71
2022/09/27 06:18:11;;;;;;;5.32;0.95;;;;;;;15.58;59.14;99689.03;5036443;28;20425;-70
2022/09/27 06:20:38;;;;;;;3.65;0.70;;;;;;;15.74;58.85;99682.38;5017991;28;20475;-70
2022/09/27 06:23:22;;;;;;;3.30;0.80;;;;;;;15.92;58.52;99689.75;5042369;28;20544;-70
2022/09/27 06:25:49;;;;;;;5.07;0.70;;;;;;;15.54;59.01;99691.53;5043412;28;20025;-71
2022/09/27 06:28:15;;;;;;;6.15;0.95;;;;;;;15.76;58.59;99693.75;5041381;28;20389;-70
2022/09/27 06:30:44;;;;;;;4.60;1.05;;;;;;;15.86;58.09;99687.41;5043211;28;20421;-71
2022/09/27 06:33:14;;;;;;;2.95;1.05;;;;;;;15.94;57.28;99678.66;5044940;28;20040;-69
2022/09/27 06:35:41;;;;;;;4.47;0.95;;;;;;;15.66;58.61;99685.72;5045453;28;20037;-71
2022/09/27 06:38:09;;;;;;;8.60;1.05;;;;;;;15.58;59.04;99686.34;5053283;28;20544;-70
2022/09/27 06:40:35;;;;;;;5.40;0.75;;;;;;;15.33;59.69;99686.53;5053723;28;20068;-70
2022/09/27 06:43:06;;;;;;;4.10;1.33;;;;;;;15.54;59.39;99696.13;5052819;28;20060;-69
2022/09/27 06:45:34;;;;;;;3.55;0.93;;;;;;;15.50;59.18;99692.38;5053089;28;20508;-70
2022/09/27 06:48:06;;;;;;;11.85;1.33;;;;;;;15.19;60.50;99691.81;5052106;28;20037;-71
2022/09/27 06:50:34;;;;;;;4.47;0.80;;;;;;;15.25;60.95;99695.28;5053034;28;20041;-69
2022/09/27 06:53:00;;;;;;;4.32;1.27;;;;;;;15.11;61.75;99702.41;5053340;28;20036;-73
2022/09/27 06:55:25;;;;;;;5.85;1.50;;;;;;;15.75;59.50;99697.53;5038668;28;20363;-71
2022/09/27 07:00:52;;;;;;;11.50;2.15;;;;;;;15.82;59.03;99706.13;4971236;28;20510;-72
2022/09/27 07:03:18;;;;;;;5.38;1.42;;;;;;;15.09;61.37;99702.69;4971443;28;20049;-74
2022/09/27 07:05:57;;;;;;;2.55;1.13;;;;;;;15.80;59.68;99709.09;4971344;28;20039;-71
2022/09/27 07:08:25;;;;;;;2.28;1.23;;;;;;;15.60;60.96;99709.34;4971293;28;20463;-74
2022/09/27 07:10:51;;;;;;;7.05;0.85;;;;;;;16.42;58.87;99705.41;4971638;28;20050;-71
2022/09/27 07:13:17;;;;;;;3.70;0.77;;;;;;;16.32;59.26;99708.25;4971090;28;20039;-70
2022/09/27 07:15:43;;;;;;;6.65;1.35;;;;;;;16.32;59.26;99710.16;4971153;28;20119;-72
2022/09/27 07:18:08;;;;;;;3.33;0.93;;;;;;;16.05;60.03;99709.94;4970679;28;20058;-71
2022/09/27 07:20:37;;;;;;;4.95;0.90;;;;;;;16.36;59.54;99713.91;4970275;28;20470;-72
2022/09/27 07:23:04;;;;;;;5.88;0.80;;;;;;;16.43;59.58;99714.38;4954894;28;20451;-72
2022/09/27 07:25:30;;;;;;;8.60;2.38;;;;;;;16.75;58.73;99710.97;4971539;28;20046;-72
2022/09/27 07:28:01;;;;;;;6.93;1.05;;;;;;;15.63;62.42;99721.47;4970945;28;20097;-72
2022/09/27 07:30:26;;;;;;;3.22;0.88;;;;;;;16.22;61.52;99718.41;4970887;28;20043;-72
2022/09/27 07:32:57;;;;;;;5.70;1.33;;;;;;;17.32;58.35;99707.91;4970185;28;20133;-71
2022/09/27 07:35:23;;;;;;;16.52;3.28;;;;;;;16.27;60.33;99716.47;4970881;28;20262;-71
2022/09/27 07:37:49;;;;;;;3.40;0.70;;;;;;;16.09;61.79;99722.63;5016501;28;20140;-71
2022/09/27 07:40:14;;;;;;;5.93;0.88;;;;;;;16.94;60.00;99718.03;5032271;28;20042;-73
2022/09/27 07:42:40;;;;;;;8.90;1.13;;;;;;;17.33;58.42;99720.41;5030732;28;20508;-73
2022/09/27 07:45:07;;;;;;;5.78;0.77;;;;;;;17.23;58.43;99723.28;5039641;28;20064;-72
2022/09/27 07:47:32;;;;;;;4.25;0.95;;;;;;;16.64;59.64;99721.97;5042074;28;20045;-72
2022/09/27 07:49:58;;;;;;;6.97;1.10;;;;;;;16.03;61.57;99725.69;5039706;28;20032;-72
2022/09/27 07:52:23;;;;;;;10.07;1.02;;;;;;;17.13;58.51;99732.38;5042271;28;20090;-73
2022/09/27 07:54:49;;;;;;;8.15;1.33;;;;;;;17.28;57.92;99729.44;5038131;28;20034;-72
2022/09/27 07:57:20;;;;;;;3.15;0.70;;;;;;;17.49;57.81;99732.66;5031744;28;20052;-71
2022/09/27 07:59:45;;;;;;;3.05;1.23;;;;;;;17.63;57.06;99738.13;5031853;28;20034;-74
2022/09/27 08:02:15;;;;;;;1.23;0.60;;;;;;;17.15;59.52;99746.47;5031720;28;20504;-73
2022/09/27 08:04:46;;;;;;;3.65;0.70;;;;;;;17.50;57.49;99737.78;5032360;28;20036;-73
2022/09/27 08:07:12;;;;;;;1.85;0.43;;;;;;;17.59;58.08;99750.69;5031663;28;20029;-72
2022/09/27 08:09:37;;;;;;;3.03;0.30;;;;;;;17.97;57.95;99757.59;5031702;28;20043;-74
2022/09/27 08:12:03;;;;;;;3.25;0.35;;;;;;;17.59;58.28;99748.78;5039355;28;20033;-72
2022/09/27 08:14:29;;;;;;;2.35;0.63;;;;;;;17.49;58.22;99759.81;5041844;28;20092;-74
2022/09/27 08:16:55;;;;;;;2.65;0.60;;;;;;;17.44;58.45;99749.81;5041165;28;20111;-72
2022/09/27 08:19:20;;;;;;;5.55;1.58;;;;;;;18.10;56.41;99760.34;5041610;28;20044;-73
2022/09/27 08:21:46;;;;;;;3.10;0.47;;;;;;;17.42;59.26;99773.75;5039600;28;20033;-75
2022/09/27 08:24:11;;;;;;;4.03;0.43;;;;;;;17.26;59.16;99764.22;5039951;28;20121;-71
2022/09/27 08:26:37;;;;;;;0.60;0.30;;;;;;;17.43;57.88;99760.97;5041979;28;20041;-75
2022/09/27 08:29:02;;;;;;;4.22;0.47;;;;;;;17.36;57.49;99769.50;5039756;28;20111;-73
2022/09/27 08:31:27;;;;;;;3.08;0.45;;;;;;;17.58;57.48;99771.63;5040857;28;20043;-71
2022/09/27 08:33:53;;;;;;;1.50;0.30;;;;;;;17.48;58.30;99769.03;5041990;28;20025;-72
2022/09/27 08:36:19;;;;;;;1.85;0.40;;;;;;;18.13;56.29;99773.34;5033902;28;20080;-71
2022/09/27 08:38:48;;;;;;;1.70;0.60;;;;;;;17.49;57.55;99779.63;5031485;28;20026;-72
2022/09/27 08:41:44;;;;;;;4.50;0.45;;;;;;;17.93;55.69;99787.31;5031693;28;20108;-72
2022/09/27 08:45:00;;;;;;;2.45;0.40;;;;;;;16.61;59.47;99794.97;5031458;28;20116;-72
2022/09/27 08:47:36;;;;;;;0.80;0.22;;;;;;;16.40;60.54;99799.81;4989454;28;20047;-71
2022/09/27 08:50:05;;;;;;;0.70;0.30;;;;;;;16.47;58.51;99794.03;4989777;28;20038;-73
2022/09/27 08:52:40;;;;;;;0.50;0.30;;;;;;;17.10;57.23;99786.47;4989651;28;20050;-72
2022/09/27 08:55:19;;;;;;;4.03;0.30;;;;;;;17.42;55.34;99789.22;4989191;28;20681;-72
2022/09/27 08:57:51;;;;;;;0.20;0.20;;;;;;;17.22;56.18;99786.81;4989376;28;20034;-72
2022/09/27 09:00:17;;;;;;;0.20;0.20;;;;;;;17.25;56.43;99795.19;4989485;28;20042;-72
2022/09/27 09:02:43;;;;;;;1.27;0.20;;;;;;;16.69;58.78;99791.63;4989311;28;20071;-70
2022/09/27 09:05:26;;;;;;;0.63;0.38;;;;;;;17.23;57.37;99800.13;4988904;28;20410;-69
2022/09/27 09:08:08;;;;;;;2.17;0.68;;;;;;;17.52;55.95;99798.06;4993129;28;20550;-68
2022/09/27 09:13:48;;;;;;;3.08;0.55;;;;;;;17.22;56.75;99792.25;4993259;28;20474;-71
2022/09/27 09:16:46;;;;;;;0.80;0.68;;;;;;;17.49;57.23;99801.34;4992284;28;20407;-68
2022/09/27 09:19:27;;;;;;;1.55;0.82;;;;;;;17.00;58.78;99795.53;4975740;28;20055;-70
2022/09/27 09:22:28;;;;;;;6.03;0.68;;;;;;;17.44;57.52;99795.16;4990456;28;20104;-70
2022/09/27 09:25:00;;;;;;;;;;;;;;;18.14;56.00;99788.53;4995798;28;20046;-68
2022/09/27 09:27:49;;;;;;;2.45;1.00;;;;;;;17.88;56.33;99794.75;4995368;28;20263;-69
2022/09/27 09:30:24;;;;;;;3.90;1.17;;;;;;;17.58;59.50;99793.34;4995322;28;20125;-70
2022/09/27 09:33:26;;;;;;;6.65;0.70;;;;;;;17.54;58.35;99787.72;4997744;28;20101;-71
2022/09/27 09:36:08;;;;;;;3.30;0.50;;;;;;;17.56;57.58;99781.97;5014581;28;20621;-70
2022/09/27 09:38:37;;;;;;;9.25;1.27;;;;;;;17.06;58.85;99788.94;5014684;28;20044;-70
2022/09/27 09:41:10;;;;;;;5.55;0.98;;;;;;;16.98;59.11;99791.53;5014758;28;20113;-72
2022/09/27 09:43:49;;;;;;;8.20;1.15;;;;;;;17.68;57.22;99787.75;5013412;28;20140;-70
2022/09/27 09:46:42;;;;;;;9.80;1.00;;;;;;;17.32;58.30;99787.47;5014458;28;20543;-72
2022/09/27 09:49:26;;;;;;;2.78;0.63;;;;;;;17.90;58.49;99787.91;4934237;29;20539;-70
2022/09/27 09:52:03;;;;;;;3.28;0.70;;;;;;;17.39;58.07;99784.41;4934303;29;20047;-71
2022/09/27 09:54:37;;;;;;;5.07;0.80;;;;;;;17.51;57.36;99784.78;4940425;29;20042;-71
2022/09/27 09:57:13;;;;;;;4.20;0.88;;;;;;;17.72;58.03;99782.53;4953393;29;20054;-72
2022/09/27 09:59:51;;;;;;;3.95;0.70;;;;;;;17.41;58.92;99782.97;4953139;29;20047;-71
2022/09/27 10:02:27;;;;;;;1.88;0.73;;;;;;;18.13;57.59;99784.22;4944512;29;20028;-72
2022/09/27 10:04:52;;;;;;;5.07;0.65;;;;;;;17.86;57.32;99786.09;4918638;29;20044;-73
2022/09/27 10:07:25;;;;;;;4.28;0.80;;;;;;;17.49;57.99;99795.13;4918100;29;20044;-72
2022/09/27 10:09:54;;;;;;;1.48;0.50;;;;;;;17.44;58.75;99785.13;4933336;29;20130;-71
2022/09/27 10:12:20;;;;;;;3.83;0.73;;;;;;;16.73;60.46;99787.22;4933256;29;20051;-72
2022/09/27 10:14:48;;;;;;;8.50;1.02;;;;;;;16.79;60.97;99780.63;4933041;29;20039;-71
2022/09/27 10:17:17;;;;;;;3.20;1.52;;;;;;;17.91;58.78;99778.66;4944342;28;20416;-73
2022/09/27 10:19:44;;;;;;;1.80;0.70;;;;;;;17.38;57.86;99783.59;4972065;28;20042;-72
2022/09/27 10:22:21;;;;;;;5.82;1.45;;;;;;;17.90;57.69;99784.38;4971393;28;20462;-75
2022/09/27 10:25:00;;;;;;;6.38;2.08;;;;;;;16.13;60.39;99791.44;4971569;28;20511;-72
2022/09/27 10:27:25;;;;;;;2.10;0.50;;;;;;;16.51;60.83;99830.38;5052914;28;20029;-75
2022/09/27 10:29:58;;;;;;;1.60;0.40;;;;;;;14.10;63.57;99829.91;5052784;28;20088;-69
2022/09/27 10:32:31;;;;;;;0.82;0.20;;;;;;;15.94;59.32;99816.84;5053182;28;20037;-70
2022/09/27 10:35:29;;;;;;;0.47;0.20;;;;;;;16.39;59.02;99817.16;5034126;28;20393;-71
2022/09/27 10:38:15;;;;;;;1.00;0.40;;;;;;;14.45;64.45;99834.47;5033968;28;20057;-70
2022/09/27 10:40:42;;;;;;;1.33;0.43;;;;;;;14.64;64.92;99821.97;5034003;28;20628;-70
2022/09/27 10:43:25;;;;;;;1.45;0.47;;;;;;;16.25;59.79;99810.00;5039125;28;20405;-69
2022/09/27 10:46:04;;;;;;;3.17;0.55;;;;;;;16.71;59.37;99821.97;5053390;28;20052;-72
2022/09/27 10:48:30;;;;;;;2.15;0.50;;;;;;;16.14;60.16;99812.00;5053146;28;20473;-71
2022/09/27 10:50:59;;;;;;;2.38;0.50;;;;;;;16.58;59.33;99800.97;5053383;28;20035;-71
2022/09/27 10:53:26;;;;;;;4.15;0.50;;;;;;;16.01;60.68;99815.41;5053208;28;20063;-72
2022/09/27 10:55:52;;;;;;;7.57;0.93;;;;;;;16.60;60.57;99815.06;5035488;28;20030;-72
2022/09/27 10:58:23;;;;;;;6.25;0.77;;;;;;;17.17;58.98;99808.63;5033757;28;20087;-72
2022/09/27 11:01:00;;;;;;;6.38;0.80;;;;;;;17.74;58.18;99802.06;5033074;28;20111;-75
2022/09/27 11:03:27;;;;;;;3.78;0.82;;;;;;;17.36;59.46;99796.66;5032897;28;20044;-74
2022/09/27 11:05:54;;;;;;;4.47;1.20;;;;;;;17.19;59.68;99798.28;5033102;28;20076;-80
2022/09/27 11:08:23;;;;;;;5.35;2.33;;;;;;;16.18;61.33;99802.22;5033238;28;20048;-74
2022/09/27 11:11:13;;;;;;;9.95;3.38;;;;;;;17.51;58.90;99792.94;5033553;28;20041;-75
2022/09/27 11:13:39;;;;;;;9.60;1.88;;;;;;;18.14;57.16;99793.97;5033058;28;20084;-74
2022/09/27 11:16:33;;;;;;;2.30;0.93;;;;;;;17.54;58.83;99800.47;5032210;28;20040;-74
2022/09/27 11:19:17;;;;;;;9.05;2.60;;;;;;;16.17;61.59;99805.22;4996962;28;20050;-72
2022/09/27 11:22:02;;;;;;;5.50;1.92;;;;;;;16.98;60.54;99799.66;4992959;28;20030;-72
2022/09/27 11:24:43;;;;;;;7.05;1.42;;;;;;;17.84;58.82;99793.72;4992846;28;20054;-74
2022/09/27 11:27:21;;;;;;;3.38;0.52;;;;;;;17.41;58.34;99791.13;4993143;28;20051;-71
2022/09/27 11:30:07;;;;;;;0.73;0.35;;;;;;;18.66;55.54;99779.13;4992425;28;20521;-73
2022/09/27 11:33:06;;;;;;;2.00;0.60;;;;;;;18.05;58.75;99774.03;5007878;28;20026;-75
2022/09/27 11:35:59;;;;;;;3.13;0.63;;;;;;;18.11;56.90;99772.84;5011158;28;20037;-73
2022/09/27 11:38:30;;;;;;;1.60;1.00;;;;;;;17.58;56.11;99776.22;5011316;28;20109;-73
2022/09/27 11:41:14;;;;;;;3.58;0.68;;;;;;;17.85;57.40;99779.03;5028299;28;20055;-73
2022/09/27 11:43:54;;;;;;;1.25;0.50;;;;;;;18.00;55.90;99776.06;5013137;28;20056;-73
2022/09/27 11:46:36;;;;;;;2.67;0.32;;;;;;;16.52;59.25;99777.72;5012474;28;20038;-73
2022/09/27 11:49:27;;;;;;;2.15;0.73;;;;;;;16.98;58.37;99783.38;5018862;28;20499;-71
2022/09/27 11:51:55;;;;;;;;;;;;;;;17.16;57.72;99782.59;5019733;28;20036;-71
2022/09/27 11:54:29;;;;;;;1.98;0.68;;;;;;;17.39;54.84;99776.25;5026392;28;19931;-71
2022/09/27 11:57:27;;;;;;;9.52;5.20;;;;;;;17.35;56.21;99777.94;5011394;28;20034;-71
2022/09/27 11:59:58;;;;;;;8.90;2.83;;;;;;;17.78;54.27;99779.44;5013902;28;20030;-73
2022/09/27 12:02:45;;;;;;;4.20;1.60;;;;;;;16.92;55.38;99771.78;5021343;28;20053;-72